Time;durP1;ratioP1;P1;durP2;ratioP2;P2;SDS_P1;SDS_P2;PMS_P1;PMS_P2;Temp;Humidity;BMP_temperature;BMP_pressure;BME280_temperature;BME280_humidity;BME280_pressure;Samples;Min_cycle;Max_cycle;Signal;HPM_P1;HPM_P2
2022/09/04 00:01:23;;;;;;;1.70;0.80;;;;;;;;;;5012155;28;20025;-45
2022/09/04 00:03:49;;;;;;;1.23;0.80;;;;;;;;;;5011346;28;20034;-45
2022/09/04 00:06:17;;;;;;;1.60;0.93;;;;;;;;;;4997132;28;20023;-44
2022/09/04 00:08:53;;;;;;;1.15;0.90;;;;;;;;;;4992676;28;20050;-54
2022/09/04 00:11:30;;;;;;;1.10;0.70;;;;;;;;;;4992598;28;20372;-44
2022/09/04 00:13:59;;;;;;;2.15;1.10;;;;;;;;;;4991757;28;20066;-44
2022/09/04 00:16:43;;;;;;;1.13;0.88;;;;;;;;;;4991550;28;20034;-44
2022/09/04 00:19:09;;;;;;;1.42;0.85;;;;;;;;;;4991252;28;20033;-44
2022/09/04 00:21:38;;;;;;;2.33;0.90;;;;;;;;;;4992353;28;20023;-47
2022/09/04 00:24:07;;;;;;;1.73;0.90;;;;;;;;;;4991310;28;20027;-50
2022/09/04 00:26:39;;;;;;;0.85;0.80;;;;;;;;;;4992465;28;20104;-49
2022/09/04 00:29:29;;;;;;;1.25;0.73;;;;;;;;;;4991536;28;20026;-45
2022/09/04 00:31:58;;;;;;;2.35;0.90;;;;;;;;;;4991527;28;20035;-44
2022/09/04 00:34:39;;;;;;;1.13;0.80;;;;;;;;;;4983310;28;20033;-46
2022/09/04 00:37:06;;;;;;;1.25;0.80;;;;;;;;;;4977255;28;20076;-44
2022/09/04 00:39:52;;;;;;;1.45;0.98;;;;;;;;;;4984394;28;20356;-46
2022/09/04 00:42:24;;;;;;;0.68;0.60;;;;;;;;;;4984637;28;20019;-44
2022/09/04 00:45:03;;;;;;;1.58;0.68;;;;;;;;;;4982834;28;20114;-45
2022/09/04 00:47:47;;;;;;;1.17;0.80;;;;;;;;;;4983794;28;20027;-43
2022/09/04 00:50:40;;;;;;;1.40;1.20;;;;;;;;;;4985438;28;20022;-44
2022/09/04 00:53:12;;;;;;;0.88;0.75;;;;;;;;;;4955187;28;20392;-43
2022/09/04 00:55:38;;;;;;;1.33;0.75;;;;;;;;;;4983985;28;20023;-44
2022/09/04 00:58:20;;;;;;;1.35;0.80;;;;;;;;;;4983713;28;20030;-43
2022/09/04 01:00:47;;;;;;;1.38;0.77;;;;;;;;;;4984566;28;20372;-49
2022/09/04 01:03:17;;;;;;;0.90;0.77;;;;;;;;;;4983560;28;20027;-44
2022/09/04 01:05:55;;;;;;;1.48;0.82;;;;;;;;;;4985047;28;20030;-54
2022/09/04 01:08:40;;;;;;;1.02;0.70;;;;;;;;;;4982768;28;20495;-47
2022/09/04 01:11:06;;;;;;;1.27;0.70;;;;;;;;;;4964740;28;20593;-44
2022/09/04 01:13:42;;;;;;;0.77;0.77;;;;;;;;;;4983117;28;20035;-44
2022/09/04 01:16:13;;;;;;;0.88;0.70;;;;;;;;;;4975500;28;20055;-44
2022/09/04 01:18:47;;;;;;;1.55;0.85;;;;;;;;;;4976001;28;20026;-45
2022/09/04 01:21:18;;;;;;;0.75;0.60;;;;;;;;;;4975806;28;20097;-44
2022/09/04 01:24:02;;;;;;;1.00;0.70;;;;;;;;;;4975385;28;20035;-54
2022/09/04 01:26:43;;;;;;;1.27;0.93;;;;;;;;;;4976036;28;20039;-44
2022/09/04 01:29:24;;;;;;;1.25;0.70;;;;;;;;;;4975427;28;20147;-47
2022/09/04 01:31:54;;;;;;;1.58;0.98;;;;;;;;;;4974793;28;20027;-44
2022/09/04 01:34:41;;;;;;;0.82;0.73;;;;;;;;;;4975851;28;20050;-45
2022/09/04 01:37:27;;;;;;;1.27;0.77;;;;;;;;;;4974566;28;20023;-44
2022/09/04 01:40:03;;;;;;;1.42;0.90;;;;;;;;;;4974771;28;20023;-45
2022/09/04 01:42:55;;;;;;;1.20;1.10;;;;;;;;;;4975909;28;20027;-44
2022/09/04 01:45:36;;;;;;;1.10;0.93;;;;;;;;;;4972973;28;20047;-46
2022/09/04 01:48:06;;;;;;;1.23;0.95;;;;;;;;;;4974543;28;20127;-44
2022/09/04 01:50:33;;;;;;;1.60;0.90;;;;;;;;;;4975676;28;20388;-44
2022/09/04 01:53:06;;;;;;;1.10;1.00;;;;;;;;;;4974440;28;20077;-43
2022/09/04 01:55:32;;;;;;;2.25;1.02;;;;;;;;;;4975427;28;20031;-43
2022/09/04 01:58:00;;;;;;;1.30;0.80;;;;;;;;;;4974475;28;20432;-44
2022/09/04 02:00:28;;;;;;;1.15;0.80;;;;;;;;;;4975164;28;20023;-46
2022/09/04 02:02:54;;;;;;;0.90;0.80;;;;;;;;;;4974064;28;20030;-44
2022/09/04 02:05:20;;;;;;;1.38;0.80;;;;;;;;;;4972519;28;20033;-44
2022/09/04 02:07:46;;;;;;;1.33;0.95;;;;;;;;;;5013421;28;20030;-54
2022/09/04 02:10:36;;;;;;;1.10;0.85;;;;;;;;;;5012915;28;20517;-44
2022/09/04 02:13:07;;;;;;;1.10;0.90;;;;;;;;;;4976242;28;20052;-45
2022/09/04 02:15:48;;;;;;;0.90;0.73;;;;;;;;;;5014146;28;20057;-44
2022/09/04 02:18:26;;;;;;;1.27;0.88;;;;;;;;;;5013695;28;20072;-44
2022/09/04 02:21:01;;;;;;;1.05;0.80;;;;;;;;;;5013090;28;20030;-44
2022/09/04 02:23:28;;;;;;;2.20;0.88;;;;;;;;;;5013556;28;20036;-44
2022/09/04 02:26:10;;;;;;;0.80;0.75;;;;;;;;;;5012492;28;20515;-44
2022/09/04 02:28:56;;;;;;;1.23;0.80;;;;;;;;;;5012716;28;20475;-43
2022/09/04 02:31:40;;;;;;;1.25;0.88;;;;;;;;;;5013323;28;20022;-44
2022/09/04 02:34:08;;;;;;;1.45;0.90;;;;;;;;;;5012516;28;20695;-44
2022/09/04 02:36:40;;;;;;;1.63;0.75;;;;;;;;;;5013249;28;20448;-44
2022/09/04 02:39:26;;;;;;;1.00;0.88;;;;;;;;;;5012764;28;20030;-44
2022/09/04 02:41:52;;;;;;;2.25;0.93;;;;;;;;;;4994534;28;20026;-44
2022/09/04 02:44:24;;;;;;;1.17;0.98;;;;;;;;;;5012969;28;20071;-44
2022/09/04 02:47:11;;;;;;;2.00;1.00;;;;;;;;;;5012489;28;20034;-54
2022/09/04 02:49:39;;;;;;;0.98;0.80;;;;;;;;;;5013058;28;20478;-44
2022/09/04 02:52:09;;;;;;;1.90;0.90;;;;;;;;;;5012458;28;20040;-47
2022/09/04 02:54:54;;;;;;;1.52;0.80;;;;;;;;;;5013057;28;20030;-46
2022/09/04 02:58:00;;;;;;;0.95;0.80;;;;;;;;;;5013210;28;20041;-45
2022/09/04 03:00:38;;;;;;;1.17;0.80;;;;;;;;;;4926780;29;20058;-44
2022/09/04 03:03:14;;;;;;;1.73;1.20;;;;;;;;;;4912773;29;20032;-44
2022/09/04 03:05:46;;;;;;;2.10;0.65;;;;;;;;;;4923977;29;20051;-44
2022/09/04 03:08:15;;;;;;;1.40;0.98;;;;;;;;;;4932189;28;20461;-46
2022/09/04 03:10:47;;;;;;;3.53;0.80;;;;;;;;;;4932956;29;20493;-44
2022/09/04 03:13:13;;;;;;;2.08;0.98;;;;;;;;;;4932511;29;20031;-43
2022/09/04 03:15:44;;;;;;;1.00;0.80;;;;;;;;;;4933200;29;20106;-44
2022/09/04 03:18:31;;;;;;;1.05;0.85;;;;;;;;;;4932243;29;20120;-43
2022/09/04 03:21:18;;;;;;;3.72;0.98;;;;;;;;;;4913082;29;20082;-45
2022/09/04 03:24:00;;;;;;;0.80;0.70;;;;;;;;;;4932948;29;20032;-45
2022/09/04 03:26:36;;;;;;;3.92;1.00;;;;;;;;;;4932764;29;20119;-44
2022/09/04 03:29:20;;;;;;;1.27;0.80;;;;;;;;;;4932074;29;20032;-44
2022/09/04 03:31:57;;;;;;;1.48;1.23;;;;;;;;;;4991058;28;20037;-44
2022/09/04 03:34:37;;;;;;;2.88;1.00;;;;;;;;;;4992826;28;20030;-44
2022/09/04 03:37:03;;;;;;;0.90;0.85;;;;;;;;;;4992319;28;20037;-44
2022/09/04 03:39:38;;;;;;;1.83;1.00;;;;;;;;;;4993073;28;20023;-45
2022/09/04 03:42:04;;;;;;;1.40;0.85;;;;;;;;;;4992064;28;20023;-44
2022/09/04 03:44:39;;;;;;;3.00;1.00;;;;;;;;;;4992648;28;20069;-45
2022/09/04 03:47:24;;;;;;;1.27;0.80;;;;;;;;;;4992076;28;20046;-45
2022/09/04 03:50:08;;;;;;;1.75;1.00;;;;;;;;;;4992531;28;20034;-55
2022/09/04 03:52:40;;;;;;;1.65;0.70;;;;;;;;;;4992468;28;20037;-44
2022/09/04 03:55:18;;;;;;;1.48;0.98;;;;;;;;;;4992124;28;20051;-44
2022/09/04 03:57:47;;;;;;;1.38;0.82;;;;;;;;;;4992745;28;20030;-44
2022/09/04 04:00:17;;;;;;;1.80;0.93;;;;;;;;;;4991985;28;20548;-44
2022/09/04 04:03:07;;;;;;;1.70;1.27;;;;;;;;;;4992519;28;20019;-43
2022/09/04 04:05:36;;;;;;;0.90;0.82;;;;;;;;;;5001727;28;20034;-42
2022/09/04 04:08:20;;;;;;;0.90;0.80;;;;;;;;;;5011206;28;20459;-43
2022/09/04 04:10:46;;;;;;;1.10;0.90;;;;;;;;;;5012075;28;20144;-44
2022/09/04 04:13:25;;;;;;;3.35;0.80;;;;;;;;;;5011427;28;20045;-42
2022/09/04 04:15:54;;;;;;;1.40;1.08;;;;;;;;;;5016289;28;20022;-48
2022/09/04 04:18:26;;;;;;;1.45;0.77;;;;;;;;;;5015937;28;20026;-43
2022/09/04 04:21:10;;;;;;;1.70;1.05;;;;;;;;;;5015851;28;20057;-52
2022/09/04 04:23:55;;;;;;;0.90;0.68;;;;;;;;;;5016010;28;20042;-44
2022/09/04 04:26:29;;;;;;;0.80;0.70;;;;;;;;;;5015917;28;20057;-44
2022/09/04 04:29:13;;;;;;;1.65;1.02;;;;;;;;;;5015208;28;20021;-54
2022/09/04 04:32:09;;;;;;;0.98;0.70;;;;;;;;;;5015936;28;20025;-48
2022/09/04 04:35:00;;;;;;;2.10;0.73;;;;;;;;;;5015768;28;20026;-46
2022/09/04 04:37:26;;;;;;;1.45;1.00;;;;;;;;;;4992990;28;20490;-44
2022/09/04 04:39:59;;;;;;;1.05;0.95;;;;;;;;;;5015162;28;20030;-54
2022/09/04 04:42:33;;;;;;;1.05;0.90;;;;;;;;;;5015735;28;20026;-44
2022/09/04 04:47:47;;;;;;;0.95;0.77;;;;;;;;;;4965597;28;20034;-44
2022/09/04 04:50:36;;;;;;;1.63;0.70;;;;;;;;;;5014540;28;20127;-44
2022/09/04 04:53:18;;;;;;;2.22;1.20;;;;;;;;;;5015490;28;20030;-44
2022/09/04 04:56:05;;;;;;;9.15;1.35;;;;;;;;;;5015773;28;20387;-44
2022/09/04 04:58:46;;;;;;;2.35;1.10;;;;;;;;;;5015200;28;20030;-51
2022/09/04 05:01:18;;;;;;;1.40;1.17;;;;;;;;;;5014543;28;20478;-44
2022/09/04 05:04:06;;;;;;;2.08;1.17;;;;;;;;;;5004292;28;20096;-47
2022/09/04 05:06:35;;;;;;;1.65;1.17;;;;;;;;;;4999936;28;20545;-44
2022/09/04 05:09:01;;;;;;;2.50;1.17;;;;;;;;;;4994197;28;20050;-43
2022/09/04 05:11:37;;;;;;;1.85;1.00;;;;;;;;;;4995808;28;20030;-43
2022/09/04 05:14:06;;;;;;;2.67;1.00;;;;;;;;;;4994414;28;20030;-44
2022/09/04 05:16:31;;;;;;;1.42;1.08;;;;;;;;;;4993117;28;20061;-44
2022/09/04 05:19:15;;;;;;;1.73;1.30;;;;;;;;;;4994522;28;20484;-54
2022/09/04 05:21:44;;;;;;;1.50;1.23;;;;;;;;;;4995303;28;20085;-43
2022/09/04 05:24:17;;;;;;;5.22;1.42;;;;;;;;;;4993682;28;20046;-46
2022/09/04 05:26:46;;;;;;;1.70;1.00;;;;;;;;;;4989932;28;20022;-44
2022/09/04 05:29:16;;;;;;;1.38;1.17;;;;;;;;;;4994165;28;20073;-44
2022/09/04 05:31:42;;;;;;;1.33;1.02;;;;;;;;;;4995221;28;20061;-43
2022/09/04 05:34:17;;;;;;;0.95;0.85;;;;;;;;;;4994218;28;20065;-43
2022/09/04 05:36:43;;;;;;;2.83;1.00;;;;;;;;;;4994889;28;20015;-43
2022/09/04 05:39:29;;;;;;;1.13;1.00;;;;;;;;;;4993795;28;20029;-44
2022/09/04 05:41:55;;;;;;;2.60;1.30;;;;;;;;;;4995195;28;20030;-43
2022/09/04 05:44:39;;;;;;;1.20;1.10;;;;;;;;;;4993740;28;20092;-44
2022/09/04 05:47:11;;;;;;;2.35;1.17;;;;;;;;;;4993814;28;20081;-43
2022/09/04 05:49:43;;;;;;;1.75;1.20;;;;;;;;;;4992862;28;20022;-43
2022/09/04 05:52:09;;;;;;;;;;;;;;;;;;4992205;28;20019;-43
2022/09/04 05:55:01;;;;;;;1.52;1.20;;;;;;;;;;4994556;28;19910;-43
2022/09/04 05:57:43;;;;;;;2.38;1.23;;;;;;;;;;4994775;28;20018;-44
2022/09/04 06:00:16;;;;;;;1.20;1.00;;;;;;;;;;4990512;28;20464;-50
2022/09/04 06:02:58;;;;;;;3.60;1.42;;;;;;;;;;4994076;28;20035;-43
2022/09/04 06:05:27;;;;;;;2.78;1.67;;;;;;;;;;5000377;28;20049;-43
2022/09/04 06:07:56;;;;;;;1.60;1.13;;;;;;;;;;5011789;28;20052;-44
2022/09/04 06:10:46;;;;;;;1.30;1.00;;;;;;;;;;4993651;28;20054;-43
2022/09/04 06:13:31;;;;;;;1.73;1.25;;;;;;;;;;4969925;28;20077;-44
2022/09/04 06:16:15;;;;;;;2.42;1.02;;;;;;;;;;4993965;28;20037;-54
2022/09/04 06:19:00;;;;;;;2.28;1.00;;;;;;;;;;4994101;28;20144;-43
2022/09/04 06:21:44;;;;;;;3.42;2.03;;;;;;;;;;4994133;28;20026;-44
2022/09/04 06:24:29;;;;;;;1.80;1.50;;;;;;;;;;4993023;28;20069;-48
2022/09/04 06:27:00;;;;;;;1.45;1.30;;;;;;;;;;4993686;28;20029;-44
2022/09/04 06:29:29;;;;;;;2.10;1.30;;;;;;;;;;4991339;28;20022;-44
2022/09/04 06:31:55;;;;;;;2.53;1.55;;;;;;;;;;4993811;28;20019;-44
2022/09/04 06:34:36;;;;;;;2.55;1.38;;;;;;;;;;4992583;28;20616;-43
2022/09/04 06:37:21;;;;;;;3.92;1.30;;;;;;;;;;4992171;28;20471;-54
2022/09/04 06:40:02;;;;;;;2.60;2.05;;;;;;;;;;4989630;28;20034;-44
2022/09/04 06:42:27;;;;;;;2.25;1.45;;;;;;;;;;4993305;28;20484;-43
2022/09/04 06:45:13;;;;;;;3.20;1.50;;;;;;;;;;4993495;28;20042;-44
2022/09/04 06:47:55;;;;;;;3.30;1.80;;;;;;;;;;4993637;28;20034;-44
2022/09/04 06:50:38;;;;;;;1.92;1.60;;;;;;;;;;4992755;28;20027;-44
2022/09/04 06:53:10;;;;;;;2.50;1.77;;;;;;;;;;4992298;28;20023;-44
2022/09/04 06:55:36;;;;;;;1.83;1.50;;;;;;;;;;4993372;28;20026;-44
2022/09/04 06:58:11;;;;;;;4.07;1.83;;;;;;;;;;4992900;28;20121;-56
2022/09/04 07:00:57;;;;;;;3.25;1.70;;;;;;;;;;4993223;28;20037;-45
2022/09/04 07:03:31;;;;;;;2.05;1.73;;;;;;;;;;4962130;28;20046;-48
2022/09/04 07:06:02;;;;;;;3.45;1.80;;;;;;;;;;5005394;28;20026;-45
2022/09/04 07:08:31;;;;;;;1.67;1.58;;;;;;;;;;4987375;28;20129;-44
2022/09/04 07:11:16;;;;;;;3.42;1.83;;;;;;;;;;5003838;28;20503;-49
2022/09/04 07:13:54;;;;;;;1.92;1.58;;;;;;;;;;4982993;28;20081;-44
2022/09/04 07:16:29;;;;;;;2.72;1.33;;;;;;;;;;4982460;28;20318;-48
2022/09/04 07:18:58;;;;;;;1.95;1.70;;;;;;;;;;4987311;28;20038;-44
2022/09/04 07:21:34;;;;;;;1.90;1.70;;;;;;;;;;4998790;28;20030;-47
2022/09/04 07:24:03;;;;;;;2.30;1.50;;;;;;;;;;5003918;28;20085;-54
2022/09/04 07:26:29;;;;;;;1.92;1.58;;;;;;;;;;5011806;28;20028;-43
2022/09/04 07:29:30;;;;;;;2.65;1.40;;;;;;;;;;4981109;28;20034;-44
2022/09/04 07:32:10;;;;;;;1.77;1.57;;;;;;;;;;4893877;29;20132;-44
2022/09/04 07:34:39;;;;;;;3.92;1.60;;;;;;;;;;4961733;28;20659;-44
2022/09/04 07:37:05;;;;;;;2.15;1.70;;;;;;;;;;4971747;28;20098;-48
2022/09/04 07:40:10;;;;;;;4.25;1.88;;;;;;;;;;4990979;28;20118;-44
2022/09/04 07:43:14;;;;;;;3.90;1.75;;;;;;;;;;4908642;29;20057;-44
2022/09/04 07:45:49;;;;;;;2.00;1.50;;;;;;;;;;4856648;29;20034;-44
2022/09/04 07:48:30;;;;;;;2.92;1.40;;;;;;;;;;4918151;29;20032;-43
2022/09/04 07:51:08;;;;;;;2.20;1.65;;;;;;;;;;4963612;28;20639;-43
2022/09/04 07:53:40;;;;;;;3.33;1.88;;;;;;;;;;4989317;28;20046;-46
2022/09/04 07:56:26;;;;;;;2.50;1.25;;;;;;;;;;5010568;28;20026;-44
2022/09/04 07:59:03;;;;;;;1.88;1.30;;;;;;;;;;4981639;28;20373;-44
2022/09/04 08:01:40;;;;;;;2.00;1.58;;;;;;;;;;4972545;28;20026;-46
2022/09/04 08:04:21;;;;;;;2.33;1.23;;;;;;;;;;4971355;28;20543;-43
2022/09/04 08:06:56;;;;;;;1.92;1.55;;;;;;;;;;5011312;28;20077;-45
2022/09/04 08:09:40;;;;;;;1.85;1.52;;;;;;;;;;4972518;28;20051;-45
2022/09/04 08:12:25;;;;;;;2.85;1.70;;;;;;;;;;4971252;28;20375;-50
2022/09/04 08:15:11;;;;;;;4.45;1.40;;;;;;;;;;4971726;28;20045;-46
2022/09/04 08:17:50;;;;;;;3.03;1.33;;;;;;;;;;4961062;28;20047;-45
2022/09/04 08:20:25;;;;;;;3.42;1.75;;;;;;;;;;4971081;28;20043;-44
2022/09/04 08:23:06;;;;;;;2.85;1.70;;;;;;;;;;4977354;28;20030;-43
2022/09/04 08:25:51;;;;;;;3.33;1.50;;;;;;;;;;5010977;28;20490;-46
2022/09/04 08:28:23;;;;;;;2.45;1.60;;;;;;;;;;4990083;28;20042;-43
2022/09/04 08:30:54;;;;;;;2.03;1.40;;;;;;;;;;4971921;28;20019;-43
2022/09/04 08:33:27;;;;;;;1.67;1.30;;;;;;;;;;4970683;28;20037;-46
2022/09/04 08:36:00;;;;;;;4.50;1.45;;;;;;;;;;4971203;28;20460;-43
2022/09/04 08:38:45;;;;;;;2.08;1.73;;;;;;;;;;4976541;28;20018;-46
2022/09/04 08:41:40;;;;;;;2.13;1.65;;;;;;;;;;4990248;28;20046;-45
2022/09/04 08:44:12;;;;;;;2.55;1.50;;;;;;;;;;4973870;28;20068;-47
2022/09/04 08:46:38;;;;;;;1.45;1.33;;;;;;;;;;4970883;28;20023;-45
2022/09/04 08:49:23;;;;;;;2.25;1.42;;;;;;;;;;4971902;28;20030;-54
2022/09/04 08:52:08;;;;;;;1.73;1.45;;;;;;;;;;4971396;28;20487;-46
2022/09/04 08:54:59;;;;;;;1.90;1.10;;;;;;;;;;5005065;28;20053;-45
2022/09/04 08:57:44;;;;;;;1.98;1.63;;;;;;;;;;5003889;28;20019;-44
2022/09/04 09:00:15;;;;;;;3.58;1.73;;;;;;;;;;4972712;28;20039;-44
2022/09/04 09:02:41;;;;;;;2.57;1.80;;;;;;;;;;4978505;28;20081;-44
2022/09/04 09:05:08;;;;;;;2.45;1.40;;;;;;;;;;4999472;28;20821;-44
2022/09/04 09:07:57;;;;;;;3.30;1.52;;;;;;;;;;5004814;28;20058;-48
2022/09/04 09:10:34;;;;;;;3.90;1.40;;;;;;;;;;4974207;28;20639;-44
2022/09/04 09:13:09;;;;;;;6.13;1.50;;;;;;;;;;4974840;28;20041;-43
2022/09/04 09:15:53;;;;;;;2.97;1.45;;;;;;;;;;4991944;28;20034;-46
2022/09/04 09:18:48;;;;;;;3.10;1.58;;;;;;;;;;4983650;28;20030;-44
2022/09/04 09:21:30;;;;;;;1.88;1.45;;;;;;;;;;4974127;28;20031;-44
2022/09/04 09:23:55;;;;;;;;;;;;;;;;;;4998880;28;20045;-45
2022/09/04 09:26:22;;;;;;;7.28;1.50;;;;;;;;;;5013259;28;19912;-44
2022/09/04 09:28:54;;;;;;;2.88;1.30;;;;;;;;;;4985210;28;20019;-46
2022/09/04 09:31:37;;;;;;;2.15;1.30;;;;;;;;;;4974541;28;20504;-47
2022/09/04 09:34:22;;;;;;;2.72;1.17;;;;;;;;;;4974943;28;20042;-58
2022/09/04 09:37:07;;;;;;;2.95;1.08;;;;;;;;;;4984831;28;20041;-44
2022/09/04 09:39:43;;;;;;;1.92;1.30;;;;;;;;;;4974351;28;20035;-45
2022/09/04 09:42:28;;;;;;;1.50;1.40;;;;;;;;;;4974310;28;20031;-47
2022/09/04 09:45:05;;;;;;;2.00;0.98;;;;;;;;;;4974330;28;20101;-45
2022/09/04 09:47:30;;;;;;;2.00;1.70;;;;;;;;;;4974754;28;20027;-45
2022/09/04 09:50:05;;;;;;;3.17;1.33;;;;;;;;;;4974241;28;20484;-44
2022/09/04 09:52:47;;;;;;;2.92;1.30;;;;;;;;;;4974744;28;20023;-48
2022/09/04 09:55:15;;;;;;;2.15;1.30;;;;;;;;;;5012453;28;20029;-46
2022/09/04 09:57:51;;;;;;;2.17;1.20;;;;;;;;;;5002261;28;20027;-45
2022/09/04 10:00:18;;;;;;;2.03;1.52;;;;;;;;;;4973490;28;20065;-44
2022/09/04 10:02:59;;;;;;;1.92;0.98;;;;;;;;;;4974177;28;20023;-43
2022/09/04 10:05:44;;;;;;;5.60;1.80;;;;;;;;;;4989484;28;20849;-44
2022/09/04 10:08:17;;;;;;;3.95;1.15;;;;;;;;;;4993459;28;20030;-46
2022/09/04 10:10:54;;;;;;;3.35;1.10;;;;;;;;;;4973163;28;20039;-43
2022/09/04 10:13:45;;;;;;;3.03;1.00;;;;;;;;;;4956015;28;20027;-45
2022/09/04 10:16:34;;;;;;;2.15;1.10;;;;;;;;;;4973340;28;20039;-42
2022/09/04 10:19:29;;;;;;;1.52;1.10;;;;;;;;;;4968826;28;20030;-42
2022/09/04 10:22:14;;;;;;;1.13;0.93;;;;;;;;;;4918556;28;20040;-46
2022/09/04 10:24:58;;;;;;;2.70;1.13;;;;;;;;;;5009881;28;20058;-47
2022/09/04 10:27:45;;;;;;;1.02;0.80;;;;;;;;;;5012658;28;20037;-45
2022/09/04 10:30:13;;;;;;;1.13;0.90;;;;;;;;;;5012672;28;20034;-47
2022/09/04 10:32:39;;;;;;;4.43;1.13;;;;;;;;;;4995805;28;20673;-44
2022/09/04 10:35:20;;;;;;;2.25;0.95;;;;;;;;;;5013028;28;20112;-55
2022/09/04 10:38:16;;;;;;;1.52;1.27;;;;;;;;;;5013680;28;20056;-44
2022/09/04 10:41:09;;;;;;;1.60;1.00;;;;;;;;;;4996583;28;20427;-48
2022/09/04 10:43:38;;;;;;;2.03;1.00;;;;;;;;;;5013354;28;20040;-48
2022/09/04 10:46:20;;;;;;;1.15;0.98;;;;;;;;;;5013394;28;20105;-46
2022/09/04 10:49:10;;;;;;;4.03;0.88;;;;;;;;;;5013708;28;20344;-47
2022/09/04 10:51:36;;;;;;;3.33;1.40;;;;;;;;;;5013490;28;20070;-46
2022/09/04 10:54:17;;;;;;;1.98;1.20;;;;;;;;;;5013286;28;20545;-45
2022/09/04 10:57:01;;;;;;;2.07;1.10;;;;;;;;;;5013307;28;20080;-45
2022/09/04 10:59:42;;;;;;;5.22;1.13;;;;;;;;;;5012118;28;20162;-44
2022/09/04 11:02:08;;;;;;;3.00;0.90;;;;;;;;;;5012552;28;20104;-54
2022/09/04 11:04:35;;;;;;;2.75;1.20;;;;;;;;;;5011594;28;20168;-44
2022/09/04 11:07:25;;;;;;;3.28;1.10;;;;;;;;;;4993280;28;20023;-45
2022/09/04 11:10:00;;;;;;;1.10;0.70;;;;;;;;;;4993693;28;20046;-44
2022/09/04 11:12:27;;;;;;;1.85;0.82;;;;;;;;;;4992961;28;20037;-43
2022/09/04 11:14:53;;;;;;;1.45;0.82;;;;;;;;;;4993110;28;20361;-43
2022/09/04 11:17:38;;;;;;;2.65;1.20;;;;;;;;;;4992584;28;20073;-44
2022/09/04 11:20:19;;;;;;;1.27;0.90;;;;;;;;;;4993360;28;20037;-43
2022/09/04 11:22:45;;;;;;;1.92;1.00;;;;;;;;;;4992886;28;20026;-45
2022/09/04 11:25:32;;;;;;;1.05;0.88;;;;;;;;;;4992327;28;20084;-44
2022/09/04 11:28:04;;;;;;;1.85;1.17;;;;;;;;;;4993207;28;20068;-45
2022/09/04 11:30:37;;;;;;;0.70;0.68;;;;;;;;;;4992060;28;20022;-45
2022/09/04 11:33:21;;;;;;;1.50;1.10;;;;;;;;;;4993225;28;20026;-44
2022/09/04 11:36:06;;;;;;;1.40;0.80;;;;;;;;;;4992906;28;20037;-47
2022/09/04 11:38:44;;;;;;;1.40;1.00;;;;;;;;;;4992279;28;20045;-50
2022/09/04 11:41:16;;;;;;;1.30;1.00;;;;;;;;;;4992108;28;20035;-54
2022/09/04 11:44:01;;;;;;;1.77;0.90;;;;;;;;;;4992973;28;20042;-48
2022/09/04 11:46:28;;;;;;;2.88;0.73;;;;;;;;;;4991652;28;20036;-50
2022/09/04 11:48:54;;;;;;;0.80;0.75;;;;;;;;;;4992792;28;20038;-45
2022/09/04 11:51:39;;;;;;;1.00;0.80;;;;;;;;;;4991843;28;20040;-47
2022/09/04 11:54:08;;;;;;;1.10;1.00;;;;;;;;;;4992683;28;20037;-49
2022/09/04 11:56:38;;;;;;;1.73;1.10;;;;;;;;;;4992404;28;20022;-44
2022/09/04 11:59:25;;;;;;;1.75;1.08;;;;;;;;;;4992507;28;20054;-47
2022/09/04 12:02:09;;;;;;;1.13;0.82;;;;;;;;;;4992542;28;20029;-49
2022/09/04 12:04:50;;;;;;;0.88;0.70;;;;;;;;;;4993582;28;20044;-44
2022/09/04 12:07:35;;;;;;;2.10;0.70;;;;;;;;;;5011261;28;20033;-44
2022/09/04 12:10:01;;;;;;;1.10;0.90;;;;;;;;;;5011801;28;20052;-46
2022/09/04 12:12:39;;;;;;;1.48;0.93;;;;;;;;;;5011366;28;20071;-48
2022/09/04 12:15:05;;;;;;;1.00;0.90;;;;;;;;;;5011897;28;20378;-46
2022/09/04 12:17:47;;;;;;;0.88;0.70;;;;;;;;;;5011388;28;20022;-44
2022/09/04 12:20:32;;;;;;;1.20;1.05;;;;;;;;;;5010967;28;20034;-47
2022/09/04 12:23:17;;;;;;;1.10;1.00;;;;;;;;;;5012211;28;20026;-48
2022/09/04 12:26:02;;;;;;;1.17;1.02;;;;;;;;;;5011938;28;20034;-48
2022/09/04 12:28:32;;;;;;;1.17;0.77;;;;;;;;;;5011361;28;20054;-47
2022/09/04 12:31:01;;;;;;;0.95;0.70;;;;;;;;;;5011993;28;20022;-44
2022/09/04 12:33:46;;;;;;;1.42;0.88;;;;;;;;;;5011239;28;20026;-43
2022/09/04 12:36:31;;;;;;;1.33;0.77;;;;;;;;;;5014896;28;20034;-55
2022/09/04 12:39:02;;;;;;;1.25;1.00;;;;;;;;;;5015929;28;20084;-44
2022/09/04 12:41:28;;;;;;;1.55;0.98;;;;;;;;;;5014895;28;20053;-44
2022/09/04 12:44:03;;;;;;;1.40;0.85;;;;;;;;;;5015673;28;20065;-44
2022/09/04 12:46:29;;;;;;;1.10;1.00;;;;;;;;;;5014563;28;20077;-43
2022/09/04 12:49:15;;;;;;;1.20;1.00;;;;;;;;;;5015521;28;20029;-43
2022/09/04 12:51:48;;;;;;;1.00;0.90;;;;;;;;;;5015442;28;20029;-43
2022/09/04 12:54:34;;;;;;;1.67;0.80;;;;;;;;;;5014947;28;20045;-55
2022/09/04 12:57:14;;;;;;;1.00;0.90;;;;;;;;;;5015096;28;20037;-43
2022/09/04 12:59:52;;;;;;;1.70;1.13;;;;;;;;;;5015438;28;20117;-43
2022/09/04 13:02:30;;;;;;;1.17;0.80;;;;;;;;;;5014464;28;20022;-43
2022/09/04 13:05:03;;;;;;;2.25;0.95;;;;;;;;;;5011244;28;20034;-43
2022/09/04 13:07:33;;;;;;;1.27;0.80;;;;;;;;;;4994879;28;20027;-44
2022/09/04 13:10:02;;;;;;;2.00;0.70;;;;;;;;;;4996124;28;20046;-43
2022/09/04 13:12:31;;;;;;;0.90;0.85;;;;;;;;;;4994775;28;20053;-43
2022/09/04 13:15:04;;;;;;;1.25;0.95;;;;;;;;;;4995483;28;20026;-43
2022/09/04 13:17:42;;;;;;;1.65;0.90;;;;;;;;;;4994632;28;20022;-43
2022/09/04 13:20:27;;;;;;;2.25;0.70;;;;;;;;;;4995596;28;20018;-44
2022/09/04 13:22:53;;;;;;;1.48;0.77;;;;;;;;;;4995582;28;20033;-43
2022/09/04 13:25:26;;;;;;;1.10;0.70;;;;;;;;;;4994528;28;20034;-43
2022/09/04 13:28:03;;;;;;;0.85;0.60;;;;;;;;;;4995358;28;20026;-43
2022/09/04 13:30:31;;;;;;;1.38;0.80;;;;;;;;;;4994294;28;20034;-43
2022/09/04 13:33:08;;;;;;;2.83;1.13;;;;;;;;;;4995029;28;20027;-43
2022/09/04 13:35:55;;;;;;;2.15;1.00;;;;;;;;;;4994344;28;20019;-44
2022/09/04 13:38:23;;;;;;;1.08;0.73;;;;;;;;;;4994375;28;20121;-46
2022/09/04 13:40:59;;;;;;;0.75;0.68;;;;;;;;;;4994656;28;20559;-46
2022/09/04 13:43:35;;;;;;;0.60;0.60;;;;;;;;;;4994043;28;20018;-49
2022/09/04 13:46:06;;;;;;;2.20;0.88;;;;;;;;;;4994428;28;20391;-43
2022/09/04 13:48:44;;;;;;;1.08;0.75;;;;;;;;;;4994035;28;20026;-43
2022/09/04 13:51:17;;;;;;;1.50;0.70;;;;;;;;;;4994719;28;20026;-43
2022/09/04 13:53:52;;;;;;;1.40;1.10;;;;;;;;;;4994891;28;20026;-44
2022/09/04 13:56:25;;;;;;;0.73;0.65;;;;;;;;;;4994077;28;20551;-46
2022/09/04 13:58:52;;;;;;;0.80;0.60;;;;;;;;;;4994925;28;20054;-47
2022/09/04 14:01:21;;;;;;;1.35;1.00;;;;;;;;;;4993814;28;20026;-55
2022/09/04 14:03:49;;;;;;;1.40;0.70;;;;;;;;;;4994226;28;20475;-45
2022/09/04 14:06:17;;;;;;;0.70;0.70;;;;;;;;;;5008828;28;20144;-55
2022/09/04 14:08:45;;;;;;;1.05;0.85;;;;;;;;;;5014564;28;20076;-46
2022/09/04 14:11:24;;;;;;;0.95;0.75;;;;;;;;;;5013476;28;20065;-47
2022/09/04 14:14:10;;;;;;;1.25;0.80;;;;;;;;;;5013998;28;20033;-46
2022/09/04 14:16:40;;;;;;;1.00;0.90;;;;;;;;;;5013133;28;20108;-47
2022/09/04 14:19:12;;;;;;;0.85;0.75;;;;;;;;;;5013694;28;20537;-46
2022/09/04 14:21:50;;;;;;;0.93;0.82;;;;;;;;;;5013086;28;20022;-47
2022/09/04 14:24:31;;;;;;;0.98;0.73;;;;;;;;;;5013392;28;20049;-56
2022/09/04 14:27:09;;;;;;;1.63;0.68;;;;;;;;;;5013807;28;20033;-44
2022/09/04 14:29:57;;;;;;;1.73;0.75;;;;;;;;;;5013018;28;20349;-44
2022/09/04 14:32:41;;;;;;;1.02;0.93;;;;;;;;;;4995709;28;20060;-43
2022/09/04 14:35:15;;;;;;;0.70;0.60;;;;;;;;;;5013582;28;20041;-44
2022/09/04 14:37:59;;;;;;;1.13;0.80;;;;;;;;;;5013114;28;20037;-43
2022/09/04 14:40:48;;;;;;;1.67;1.23;;;;;;;;;;5012576;28;20053;-44
2022/09/04 14:43:21;;;;;;;0.82;0.60;;;;;;;;;;5003159;28;20033;-44
2022/09/04 14:45:58;;;;;;;1.75;0.90;;;;;;;;;;5013682;28;20112;-43
2022/09/04 14:48:24;;;;;;;1.30;0.75;;;;;;;;;;5012323;28;20053;-49
2022/09/04 14:50:52;;;;;;;1.40;0.90;;;;;;;;;;5013610;28;20168;-43
2022/09/04 14:53:30;;;;;;;0.95;0.73;;;;;;;;;;5012900;28;20022;-55
2022/09/04 14:56:19;;;;;;;0.70;0.60;;;;;;;;;;5012732;28;20496;-44
2022/09/04 14:58:52;;;;;;;1.33;1.00;;;;;;;;;;5012388;28;20523;-43
2022/09/04 15:01:23;;;;;;;0.85;0.70;;;;;;;;;;5012930;28;20072;-53
2022/09/04 15:03:54;;;;;;;1.17;0.80;;;;;;;;;;5012714;28;20072;-46
2022/09/04 15:06:24;;;;;;;1.60;0.95;;;;;;;;;;4996477;28;20070;-54
2022/09/04 15:08:50;;;;;;;1.17;0.80;;;;;;;;;;4993470;28;20563;-44
2022/09/04 15:11:29;;;;;;;2.47;1.13;;;;;;;;;;4993519;28;20098;-44
2022/09/04 15:13:58;;;;;;;1.85;0.93;;;;;;;;;;4993213;28;20035;-44
2022/09/04 15:16:43;;;;;;;1.23;0.80;;;;;;;;;;4992515;28;20484;-44
2022/09/04 15:19:28;;;;;;;1.20;0.90;;;;;;;;;;4993145;28;20034;-44
2022/09/04 15:21:58;;;;;;;1.55;0.90;;;;;;;;;;4993464;28;20025;-44
2022/09/04 15:24:26;;;;;;;0.93;0.93;;;;;;;;;;4992267;28;20031;-44
2022/09/04 15:26:58;;;;;;;1.08;0.98;;;;;;;;;;4993164;28;20575;-43
2022/09/04 15:29:35;;;;;;;1.85;0.88;;;;;;;;;;4992367;28;20026;-43
2022/09/04 15:32:09;;;;;;;1.30;0.85;;;;;;;;;;4993173;28;20045;-43
2022/09/04 15:34:35;;;;;;;1.15;0.70;;;;;;;;;;4991857;28;20468;-44
2022/09/04 15:37:27;;;;;;;1.05;0.88;;;;;;;;;;4992976;28;20415;-44
2022/09/04 15:40:14;;;;;;;1.27;0.85;;;;;;;;;;4972580;28;20400;-44
2022/09/04 15:42:40;;;;;;;0.80;0.80;;;;;;;;;;4992065;28;20097;-44